This is the latest recevied weather packets stored in our database for station/object N7NIP. If no packets are shown the sender has not sent any weather packets the latest 10 day(s).
| Time | Temp. | Humidity | Pressure | Rain* | Wind** | Luminosity | Snow |
|---|---|---|---|---|---|---|---|
| 1777827198 | 19.44° C | 61% | 1028.5 hPa | 0 mm | - | 613 W/m² | - |
| 1777826893 | 18.89° C | 65% | 1028.5 hPa | 0 mm | - | 597 W/m² | - |
| 1777826591 | 18.89° C | 63% | 1028.6 hPa | 0 mm | - | 581 W/m² | - |
| 1777826287 | 18.89° C | 63% | 1028.6 hPa | 0 mm | - | 564 W/m² | - |
| 1777825985 | 18.89° C | 63% | 1028.5 hPa | 0 mm | - | 550 W/m² | - |
| 1777825681 | 18.89° C | 63% | 1028.5 hPa | 0 mm | - | 533 W/m² | - |
| 1777825379 | 18.89° C | 64% | 1028.8 hPa | 0 mm | - | 516 W/m² | - |
| 1777825076 | 18.89° C | 65% | 1028.6 hPa | 0 mm | - | 524 W/m² | - |
| 1777824771 | 18.89° C | 62% | 1028.6 hPa | 0 mm | - | 388 W/m² | - |
| 1777824469 | 18.33° C | 62% | 1028.5 hPa | 0 mm | - | 336 W/m² | - |
| 1777824165 | 18.33° C | 64% | 1028.5 hPa | 0 mm | - | 337 W/m² | - |
| 1777823861 | 17.78° C | 66% | 1028.9 hPa | 0 mm | - | 353 W/m² | - |
| 1777823559 | 17.78° C | 68% | 1028.8 hPa | 0 mm | - | 366 W/m² | - |
| 1777823256 | 17.78° C | 64% | 1028.8 hPa | 0 mm | - | 357 W/m² | - |
| 1777822953 | 17.78° C | 67% | 1028.8 hPa | 0 mm | - | 338 W/m² | - |
| 1777822651 | 18.33° C | 65% | 1028.6 hPa | 0 mm | - | 324 W/m² | - |
| 1777822349 | 18.33° C | 66% | 1028.6 hPa | 0 mm | - | 292 W/m² | - |
| 1777822046 | 17.78° C | 69% | 1028.6 hPa | 0 mm | - | 262 W/m² | - |
| 1777821744 | 17.22° C | 71% | 1028.9 hPa | 0 mm | - | 256 W/m² | - |
| 1777821441 | 16.11° C | 74% | 1028.8 hPa | 0 mm | - | 259 W/m² | - |
| 1777821138 | 15° C | 90% | 1028.8 hPa | 0 mm | - | 245 W/m² | - |
| 1777820835 | 13.33° C | 99% | 1028.7 hPa | 0 mm | - | 235 W/m² | - |
| 1777820531 | 12.78° C | 99% | 1028.9 hPa | 0 mm | - | 206 W/m² | - |
| 1777820228 | 12.78° C | 99% | 1028.7 hPa | 0 mm | - | 177 W/m² | - |
| 1777819925 | 12.22° C | 99% | 1028.7 hPa | 0 mm | - | 161 W/m² | - |
* Rain latest hour (hover to see other rain measurements)
** Current wind speed in m/s (hover to see current wind gust speed)